Time;durP1;ratioP1;P1;durP2;ratioP2;P2;SDS_P1;SDS_P2;PMS_P1;PMS_P2;Temp;Humidity;BMP_temperature;BMP_pressure;BME280_temperature;BME280_humidity;BME280_pressure;Samples;Min_cycle;Max_cycle;Signal;HPM_P1;HPM_P2
2024/01/04 00:02:12;;;;;;;;;;;;;;;17.32;46.46;97447.97;10325861;28;790;-74
2024/01/04 00:07:08;;;;;;;;;;;;;;;17.31;46.44;97449.75;10325744;28;829;-74
2024/01/04 00:12:03;;;;;;;;;;;;;;;17.28;46.68;97457.03;10325471;28;1894;-74
2024/01/04 00:16:59;;;;;;;;;;;;;;;17.26;46.66;97457.16;10325546;28;806;-74
2024/01/04 00:21:55;;;;;;;;;;;;;;;17.24;46.74;97464.34;10325430;28;777;-74
2024/01/04 00:26:51;;;;;;;;;;;;;;;17.24;46.75;97467.00;10325479;28;892;-74
2024/01/04 00:31:48;;;;;;;;;;;;;;;17.24;46.62;97485.41;10325770;28;1918;-74
2024/01/04 00:36:44;;;;;;;;;;;;;;;17.23;46.64;97493.41;10325224;28;1433;-75
2024/01/04 00:41:40;;;;;;;;;;;;;;;17.22;46.79;97494.41;10324469;28;838;-74
2024/01/04 00:46:36;;;;;;;;;;;;;;;17.22;46.82;97497.84;10325050;28;853;-75
2024/01/04 00:51:32;;;;;;;;;;;;;;;17.22;46.67;97515.44;10324756;28;1981;-75
2024/01/04 00:56:28;;;;;;;;;;;;;;;17.19;46.64;97516.53;10325260;28;842;-75
2024/01/04 01:01:24;;;;;;;;;;;;;;;17.16;46.79;97523.78;10329917;28;897;-75
2024/01/04 01:06:20;;;;;;;;;;;;;;;17.16;46.75;97535.19;10332343;28;782;-75
2024/01/04 01:11:16;;;;;;;;;;;;;;;17.17;46.74;97538.66;10332363;28;1910;-75
2024/01/04 01:16:11;;;;;;;;;;;;;;;17.17;46.88;97547.38;10332382;28;956;-75
2024/01/04 01:21:07;;;;;;;;;;;;;;;17.15;46.78;97544.03;10333233;28;873;-75
2024/01/04 01:26:04;;;;;;;;;;;;;;;17.15;46.73;97561.63;10331736;28;782;-75
2024/01/04 01:31:00;;;;;;;;;;;;;;;17.13;46.84;97571.41;10331329;28;1897;-74
2024/01/04 01:35:56;;;;;;;;;;;;;;;17.12;46.68;97567.94;10331372;28;1596;-75
2024/01/04 01:40:52;;;;;;;;;;;;;;;17.13;46.95;97576.69;10331647;28;790;-74
2024/01/04 01:45:48;;;;;;;;;;;;;;;17.13;46.75;97585.41;10330891;28;854;-75
2024/01/04 01:50:44;;;;;;;;;;;;;;;17.10;46.94;97590.91;10330264;28;1983;-75
2024/01/04 01:55:40;;;;;;;;;;;;;;;17.10;46.83;97604.06;10331121;28;880;-74
2024/01/04 02:00:36;;;;;;;;;;;;;;;17.11;46.74;97620.69;10331206;28;955;-75
2024/01/04 02:05:32;;;;;;;;;;;;;;;17.10;46.69;97625.13;10330853;28;868;-75
2024/01/04 02:10:28;;;;;;;;;;;;;;;17.11;46.72;97642.63;10330342;28;1901;-75
2024/01/04 02:15:24;;;;;;;;;;;;;;;17.07;46.89;97652.50;10329876;28;921;-75
2024/01/04 02:20:20;;;;;;;;;;;;;;;17.08;46.97;97658.63;10329714;28;845;-75
2024/01/04 02:25:16;;;;;;;;;;;;;;;17.08;46.89;97674.41;10328920;28;868;-75
2024/01/04 02:30:12;;;;;;;;;;;;;;;17.08;46.71;97672.63;10329361;28;1957;-75
2024/01/04 02:35:07;;;;;;;;;;;;;;;17.07;46.68;97684.09;10329612;28;833;-75
2024/01/04 02:40:04;;;;;;;;;;;;;;;17.04;46.85;97696.66;10328306;28;1413;-75
2024/01/04 02:45:00;;;;;;;;;;;;;;;17.04;46.57;97712.44;10328707;28;791;-75
2024/01/04 02:49:55;;;;;;;;;;;;;;;17.06;46.75;97715.81;10328421;28;1906;-75
2024/01/04 02:54:51;;;;;;;;;;;;;;;17.07;46.71;97728.84;10328277;28;781;-75
2024/01/04 02:59:47;;;;;;;;;;;;;;;17.05;46.83;97750.97;10328046;28;818;-74
2024/01/04 03:04:44;;;;;;;;;;;;;;;17.02;46.84;97746.75;10328616;28;826;-75
2024/01/04 03:09:40;;;;;;;;;;;;;;;17.02;46.81;97775.72;10327809;28;1902;-75
2024/01/04 03:14:36;;;;;;;;;;;;;;;17.04;46.89;97797.50;10328205;28;909;-75
2024/01/04 03:19:32;;;;;;;;;;;;;;;17.02;46.97;97803.81;10327811;28;814;-75
2024/01/04 03:24:28;;;;;;;;;;;;;;;17.02;46.84;97806.47;10326544;28;856;-75
2024/01/04 03:29:23;;;;;;;;;;;;;;;17.00;46.98;97818.88;10326808;28;1958;-74
2024/01/04 03:34:19;;;;;;;;;;;;;;;16.98;46.80;97826.91;10326033;28;1126;-75
2024/01/04 03:39:15;;;;;;;;;;;;;;;17.01;46.96;97829.31;10326966;28;1389;-75
2024/01/04 03:44:11;;;;;;;;;;;;;;;17.01;47.01;97836.38;10327866;28;893;-75
2024/01/04 03:49:07;;;;;;;;;;;;;;;17.00;46.77;97842.56;10326244;28;1914;-75
2024/01/04 03:54:03;;;;;;;;;;;;;;;16.97;46.79;97842.78;10326710;28;859;-74
2024/01/04 03:58:59;;;;;;;;;;;;;;;16.99;46.95;97848.78;10326731;28;845;-75
2024/01/04 04:03:54;;;;;;;;;;;;;;;16.99;46.69;97854.06;10325887;28;911;-75
2024/01/04 04:08:50;;;;;;;;;;;;;;;16.98;46.72;97840.06;10325765;28;1906;-75
2024/01/04 04:13:46;;;;;;;;;;;;;;;16.96;46.95;97857.75;10325535;28;850;-75
2024/01/04 04:18:42;;;;;;;;;;;;;;;16.96;46.93;97865.63;10325517;28;902;-75
2024/01/04 04:23:38;;;;;;;;;;;;;;;16.97;46.88;97877.84;10325439;28;885;-75
2024/01/04 04:28:34;;;;;;;;;;;;;;;16.98;46.80;97883.97;10324669;28;1193;-75
2024/01/04 04:33:30;;;;;;;;;;;;;;;16.97;46.69;97879.63;10326256;28;1959;-75
2024/01/04 04:38:26;;;;;;;;;;;;;;;16.95;46.82;97892.03;10332859;28;1232;-75
2024/01/04 04:43:22;;;;;;;;;;;;;;;16.96;46.66;97899.00;10333351;28;956;-75
2024/01/04 04:48:18;;;;;;;;;;;;;;;17.01;46.55;97903.00;10333268;28;838;-76
2024/01/04 04:53:14;;;;;;;;;;;;;;;17.04;46.73;97908.06;10332962;28;1910;-76
2024/01/04 04:58:10;;;;;;;;;;;;;;;17.06;46.53;97911.44;10332856;28;853;-75
2024/01/04 05:03:06;;;;;;;;;;;;;;;17.11;46.45;97916.38;10333263;28;805;-76
2024/01/04 05:08:02;;;;;;;;;;;;;;;17.11;46.31;97924.28;10332988;28;882;-75
2024/01/04 05:12:58;;;;;;;;;;;;;;;17.17;46.28;97929.09;10332011;28;1911;-75
2024/01/04 05:17:54;;;;;;;;;;;;;;;17.21;46.14;97941.13;10331984;28;849;-74
2024/01/04 05:22:49;;;;;;;;;;;;;;;17.21;46.07;97951.66;10332427;28;825;-75
2024/01/04 05:27:45;;;;;;;;;;;;;;;17.26;46.24;97970.56;10331670;28;868;-75
2024/01/04 05:32:41;;;;;;;;;;;;;;;17.29;46.06;97985.31;10331416;28;1959;-75
2024/01/04 05:37:37;;;;;;;;;;;;;;;17.28;46.10;97984.47;10331874;28;1244;-75
2024/01/04 05:42:33;;;;;;;;;;;;;;;17.31;46.04;97999.22;10331149;28;806;-76
2024/01/04 05:47:29;;;;;;;;;;;;;;;17.38;46.17;98002.28;10331067;28;908;-76
2024/01/04 05:52:25;;;;;;;;;;;;;;;17.40;46.37;98008.31;10330922;28;1915;-76
2024/01/04 05:57:21;;;;;;;;;;;;;;;17.47;46.34;98020.09;10330553;28;941;-77
2024/01/04 06:02:17;;;;;;;;;;;;;;;17.48;46.13;98027.88;10330473;28;916;-76
2024/01/04 06:07:13;;;;;;;;;;;;;;;17.49;46.35;98045.38;10330246;28;834;-76
2024/01/04 06:12:09;;;;;;;;;;;;;;;17.50;46.34;98054.97;10330373;28;1955;-76
2024/01/04 06:17:05;;;;;;;;;;;;;;;17.48;46.41;98066.56;10330479;28;810;-75
2024/01/04 06:22:00;;;;;;;;;;;;;;;17.44;46.44;98072.97;10330423;28;890;-76
2024/01/04 06:26:56;;;;;;;;;;;;;;;17.50;46.41;98067.28;10329497;28;847;-76
2024/01/04 06:31:52;;;;;;;;;;;;;;;17.54;46.37;98074.03;10329201;28;1941;-76
2024/01/04 06:36:48;;;;;;;;;;;;;;;17.46;46.42;98094.78;10328621;28;1206;-77
2024/01/04 06:41:44;;;;;;;;;;;;;;;17.47;46.36;98104.38;10328869;28;779;-79
2024/01/04 06:46:40;;;;;;;;;;;;;;;17.54;46.45;98105.66;10327987;28;932;-77
2024/01/04 06:51:36;;;;;;;;;;;;;;;17.47;46.47;98110.47;10329003;28;1964;-74
2024/01/04 06:56:32;;;;;;;;;;;;;;;17.47;46.48;98114.91;10327405;28;853;-73
2024/01/04 07:01:28;;;;;;;;;;;;;;;17.42;46.50;98125.78;10329241;28;770;-83
2024/01/04 07:06:24;;;;;;;;;;;;;;;17.37;46.68;98129.63;10327878;28;818;-84
2024/01/04 07:11:19;;;;;;;;;;;;;;;17.34;46.67;98146.50;10328265;28;1894;-75
2024/01/04 07:16:15;;;;;;;;;;;;;;;17.29;46.72;98152.09;10328046;28;890;-82
2024/01/04 07:21:13;;;;;;;;;;;;;;;17.27;46.80;98140.81;10328077;28;963;-76
2024/01/04 07:26:09;;;;;;;;;;;;;;;17.39;46.77;98148.81;10327594;28;956;-73
2024/01/04 07:31:04;;;;;;;;;;;;;;;17.43;46.52;98152.94;10326527;28;1894;-71
2024/01/04 07:36:00;;;;;;;;;;;;;;;17.30;47.43;98152.94;10326283;28;1310;-71
2024/01/04 07:40:56;;;;;;;;;;;;;;;17.31;47.51;98151.97;10327157;28;938;-72
2024/01/04 07:45:52;;;;;;;;;;;;;;;17.35;47.17;98166.63;10326618;28;904;-71
2024/01/04 07:50:48;;;;;;;;;;;;;;;17.33;47.20;98173.78;10326529;28;1910;-73
2024/01/04 07:55:44;;;;;;;;;;;;;;;17.30;47.31;98180.09;10325548;28;893;-71
2024/01/04 08:00:40;;;;;;;;;;;;;;;17.28;47.06;98181.97;10326746;28;836;-70
2024/01/04 08:05:36;;;;;;;;;;;;;;;17.25;47.18;98192.72;10325849;28;938;-70
2024/01/04 08:10:32;;;;;;;;;;;;;;;17.19;47.20;98187.88;10325735;28;1906;-70
2024/01/04 08:15:29;;;;;;;;;;;;;;;17.18;47.34;98201.13;10325599;28;935;-70
2024/01/04 08:20:25;;;;;;;;;;;;;;;17.18;47.57;98193.22;10326361;28;916;-70
2024/01/04 08:25:21;;;;;;;;;;;;;;;17.16;47.50;98206.50;10325969;28;915;-70
2024/01/04 08:30:16;;;;;;;;;;;;;;;17.13;47.52;98209.31;10325744;28;1910;-70
2024/01/04 08:35:12;;;;;;;;;;;;;;;17.06;47.71;98229.09;10325246;28;980;-70
2024/01/04 08:40:08;;;;;;;;;;;;;;;17.04;47.72;98221.28;10325183;28;1246;-70
2024/01/04 08:45:04;;;;;;;;;;;;;;;16.97;47.78;98227.03;10324973;28;935;-70
2024/01/04 08:50:00;;;;;;;;;;;;;;;16.92;48.10;98244.91;10325054;28;1914;-70
2024/01/04 08:54:56;;;;;;;;;;;;;;;16.94;47.88;98272.00;10325325;28;878;-70
2024/01/04 08:59:52;;;;;;;;;;;;;;;16.91;47.88;98278.28;10324798;28;781;-70
2024/01/04 09:04:48;;;;;;;;;;;;;;;16.82;48.23;98284.13;10325211;28;865;-69
2024/01/04 09:09:44;;;;;;;;;;;;;;;16.74;48.28;98284.59;10324672;28;1901;-72
2024/01/04 09:14:40;;;;;;;;;;;;;;;16.75;48.58;98278.38;10324988;28;868;-71
2024/01/04 09:19:36;;;;;;;;;;;;;;;16.80;48.30;98283.41;10325276;28;972;-71
2024/01/04 09:24:32;;;;;;;;;;;;;;;16.89;48.14;98290.69;10331796;28;862;-73
2024/01/04 09:29:28;;;;;;;;;;;;;;;16.89;47.84;98290.69;10331628;28;1960;-73
2024/01/04 09:34:27;;;;;;;;;;;;;;;16.97;47.90;98301.59;10330840;28;965;-73
2024/01/04 09:39:23;;;;;;;;;;;;;;;17.05;47.63;98317.72;10331859;28;1172;-71
2024/01/04 09:44:19;;;;;;;;;;;;;;;17.13;47.70;98325.16;10331149;28;804;-71
2024/01/04 09:49:15;;;;;;;;;;;;;;;17.20;47.65;98330.88;10330875;28;1977;-71
2024/01/04 09:54:10;;;;;;;;;;;;;;;17.25;47.61;98334.91;10330621;28;839;-70
2024/01/04 09:59:08;;;;;;;;;;;;;;;17.27;47.40;98332.19;10328470;28;1084;-70
2024/01/04 10:04:03;;;;;;;;;;;;;;;17.35;47.53;98337.81;10328001;28;1046;-70
2024/01/04 10:08:59;;;;;;;;;;;;;;;17.37;47.63;98350.88;10330420;28;1890;-70
2024/01/04 10:13:55;;;;;;;;;;;;;;;17.38;47.47;98347.31;10327566;28;1085;-71
2024/01/04 10:18:52;;;;;;;;;;;;;;;17.38;47.52;98344.69;10329977;28;882;-70
2024/01/04 10:23:47;;;;;;;;;;;;;;;17.38;47.68;98355.22;10328974;28;871;-70
2024/01/04 10:28:43;;;;;;;;;;;;;;;17.39;47.52;98355.09;10329549;28;908;-70
2024/01/04 10:33:42;;;;;;;;;;;;;;;17.42;47.67;98359.31;10329124;28;1906;-73
2024/01/04 10:38:38;;;;;;;;;;;;;;;17.42;47.63;98361.97;10327157;28;1359;-69
2024/01/04 10:43:34;;;;;;;;;;;;;;;17.43;47.79;98358.41;10328401;28;865;-70
2024/01/04 10:48:30;;;;;;;;;;;;;;;17.50;47.63;98357.03;10328191;28;873;-70
2024/01/04 10:53:26;;;;;;;;;;;;;;;17.47;47.82;98362.50;10327894;28;1971;-69
2024/01/04 10:58:23;;;;;;;;;;;;;;;17.49;47.74;98371.16;10329288;28;877;-71
2024/01/04 11:03:19;;;;;;;;;;;;;;;17.47;47.59;98378.31;10327534;28;790;-69
2024/01/04 11:08:15;;;;;;;;;;;;;;;17.46;47.93;98368.75;10328340;28;885;-70
2024/01/04 11:13:11;;;;;;;;;;;;;;;17.47;47.96;98371.25;10326853;28;1898;-69
2024/01/04 11:18:07;;;;;;;;;;;;;;;17.45;48.00;98380.22;10327284;28;769;-70
2024/01/04 11:23:03;;;;;;;;;;;;;;;17.42;48.30;98377.75;10326758;28;933;-71
2024/01/04 11:27:59;;;;;;;;;;;;;;;17.39;48.02;98378.81;10327535;28;762;-70
2024/01/04 11:32:55;;;;;;;;;;;;;;;17.37;48.13;98385.09;10326358;28;1952;-69
2024/01/04 11:37:51;;;;;;;;;;;;;;;17.39;48.20;98383.22;10325959;28;1235;-69
2024/01/04 11:42:47;;;;;;;;;;;;;;;17.38;48.27;98387.66;10325632;28;987;-69
2024/01/04 11:47:43;;;;;;;;;;;;;;;17.42;48.12;98383.03;10326551;28;996;-70
2024/01/04 11:52:39;;;;;;;;;;;;;;;17.39;48.18;98386.72;10326043;28;1910;-69
2024/01/04 11:57:34;;;;;;;;;;;;;;;17.41;48.44;98389.25;10326477;28;866;-70
2024/01/04 12:02:30;;;;;;;;;;;;;;;17.47;48.36;98383.59;10325675;28;865;-69
2024/01/04 12:07:28;;;;;;;;;;;;;;;17.46;48.37;98382.75;10324997;28;793;-69
2024/01/04 12:12:23;;;;;;;;;;;;;;;17.49;48.42;98386.97;10324916;28;1893;-71
2024/01/04 12:17:19;;;;;;;;;;;;;;;17.59;48.12;98387.25;10325767;28;782;-70
2024/01/04 12:22:15;;;;;;;;;;;;;;;17.50;48.29;98391.28;10325220;28;774;-73
2024/01/04 12:27:11;;;;;;;;;;;;;;;17.48;48.29;98396.69;10324927;28;817;-74
2024/01/04 12:32:07;;;;;;;;;;;;;;;17.49;48.33;98395.72;10325438;28;1894;-73
2024/01/04 12:37:03;;;;;;;;;;;;;;;17.49;48.38;98395.72;10324398;28;1215;-73
2024/01/04 12:41:59;;;;;;;;;;;;;;;17.52;48.33;98392.03;10325438;28;964;-73
2024/01/04 12:46:55;;;;;;;;;;;;;;;17.52;48.28;98392.03;10324507;28;885;-73
2024/01/04 12:51:51;;;;;;;;;;;;;;;17.49;48.22;98397.50;10324501;28;1956;-73
2024/01/04 12:56:47;;;;;;;;;;;;;;;17.53;48.34;98393.75;10328785;28;826;-74
2024/01/04 13:01:43;;;;;;;;;;;;;;;17.53;48.13;98399.03;10332473;28;822;-72
2024/01/04 13:06:39;;;;;;;;;;;;;;;17.52;48.17;98400.78;10332902;28;849;-72
2024/01/04 13:11:35;;;;;;;;;;;;;;;17.47;48.21;98408.13;10332905;28;1951;-70
2024/01/04 13:16:31;;;;;;;;;;;;;;;17.39;48.34;98405.16;10331824;28;886;-70
2024/01/04 13:21:27;;;;;;;;;;;;;;;17.38;48.20;98413.16;10331820;28;798;-72
2024/01/04 13:26:23;;;;;;;;;;;;;;;17.46;47.92;98414.34;10331481;28;825;-72
2024/01/04 13:31:19;;;;;;;;;;;;;;;17.48;47.79;98427.44;10331282;28;1941;-72
2024/01/04 13:36:14;;;;;;;;;;;;;;;17.47;47.96;98425.75;10330995;28;1255;-72
2024/01/04 13:41:10;;;;;;;;;;;;;;;17.51;48.03;98425.44;10331470;28;900;-71
2024/01/04 13:46:06;;;;;;;;;;;;;;;17.47;47.93;98439.75;10331137;28;870;-71
2024/01/04 13:51:02;;;;;;;;;;;;;;;17.44;48.05;98432.03;10330904;28;1964;-71
2024/01/04 13:55:58;;;;;;;;;;;;;;;17.44;48.02;98450.47;10331448;28;1052;-72
2024/01/04 14:00:54;;;;;;;;;;;;;;;17.50;47.66;98462.41;10330601;28;853;-72
2024/01/04 14:05:51;;;;;;;;;;;;;;;17.51;47.76;98464.13;10330632;28;830;-72
2024/01/04 14:10:47;;;;;;;;;;;;;;;17.53;47.82;98452.56;10329038;28;1951;-73
2024/01/04 14:15:43;;;;;;;;;;;;;;;17.49;48.36;98458.09;10329628;28;777;-74
2024/01/04 14:20:41;;;;;;;;;;;;;;;17.47;48.29;98460.81;10329804;28;862;-75
2024/01/04 14:25:37;;;;;;;;;;;;;;;17.52;48.16;98474.56;10329917;28;861;-74
2024/01/04 14:30:33;;;;;;;;;;;;;;;17.51;48.43;98472.03;10329012;28;1889;-75
2024/01/04 14:35:29;;;;;;;;;;;;;;;17.56;48.33;98487.56;10329168;28;1425;-75
2024/01/04 14:40:25;;;;;;;;;;;;;;;17.51;48.25;98485.22;10328220;28;802;-73
2024/01/04 14:45:21;;;;;;;;;;;;;;;17.53;47.81;98494.72;10328873;28;889;-73
2024/01/04 14:50:18;;;;;;;;;;;;;;;17.55;47.97;98493.75;10328153;28;1979;-74
2024/01/04 14:55:14;;;;;;;;;;;;;;;17.68;47.10;98499.94;10328291;28;867;-74
2024/01/04 15:00:13;;;;;;;;;;;;;;;17.66;47.09;98499.22;10327826;28;785;-74
2024/01/04 15:05:09;;;;;;;;;;;;;;;17.62;47.49;98509.09;10327374;28;990;-75
2024/01/04 15:10:05;;;;;;;;;;;;;;;17.57;47.88;98516.44;10326758;28;1890;-75
2024/01/04 15:15:02;;;;;;;;;;;;;;;17.58;47.18;98517.28;10328046;28;1647;-75
2024/01/04 15:19:58;;;;;;;;;;;;;;;17.56;47.92;98522.66;10325744;28;923;-74
2024/01/04 15:24:54;;;;;;;;;;;;;;;17.57;47.51;98515.59;10327722;28;794;-75
2024/01/04 15:29:51;;;;;;;;;;;;;;;17.52;48.10;98521.13;10326573;28;1943;-75
2024/01/04 15:34:47;;;;;;;;;;;;;;;17.51;47.92;98519.47;10326959;28;870;-75
2024/01/04 15:39:45;;;;;;;;;;;;;;;17.54;48.13;98524.53;10326759;28;1146;-75
2024/01/04 15:44:41;;;;;;;;;;;;;;;17.51;48.12;98522.94;10326144;28;905;-75
2024/01/04 15:49:37;;;;;;;;;;;;;;;17.53;48.00;98525.47;10326435;28;1957;-75
2024/01/04 15:54:33;;;;;;;;;;;;;;;17.52;48.16;98529.03;10325300;28;1238;-75
2024/01/04 15:59:28;;;;;;;;;;;;;;;17.51;48.00;98522.94;10325339;28;1000;-75
2024/01/04 16:04:25;;;;;;;;;;;;;;;17.51;47.91;98533.47;10325650;28;893;-75
2024/01/04 16:09:21;;;;;;;;;;;;;;;17.40;47.89;98524.53;10325742;28;1954;-75
2024/01/04 16:14:18;;;;;;;;;;;;;;;17.33;47.97;98521.41;10325652;28;860;-75
2024/01/04 16:19:14;;;;;;;;;;;;;;;17.28;47.84;98526.13;10326146;28;875;-75
2024/01/04 16:24:11;;;;;;;;;;;;;;;17.23;48.03;98539.56;10325447;28;849;-75
2024/01/04 16:29:07;;;;;;;;;;;;;;;17.30;47.52;98540.88;10325283;28;784;-75
2024/01/04 16:34:03;;;;;;;;;;;;;;;17.26;47.31;98539.38;10325885;28;806;-75
2024/01/04 16:38:58;;;;;;;;;;;;;;;17.20;47.46;98534.47;10325579;28;1160;-75
2024/01/04 16:43:55;;;;;;;;;;;;;;;17.40;46.65;98540.34;10325158;28;826;-74
2024/01/04 16:48:50;;;;;;;;;;;;;;;17.29;47.13;98539.22;10324401;28;894;-75
2024/01/04 16:53:46;;;;;;;;;;;;;;;17.37;46.84;98543.13;10324288;28;1906;-75
2024/01/04 16:58:44;;;;;;;;;;;;;;;17.47;46.98;98544.28;10324856;28;893;-74
2024/01/04 17:03:40;;;;;;;;;;;;;;;17.43;46.83;98546.25;10324721;28;1714;-76
2024/01/04 17:08:36;;;;;;;;;;;;;;;17.51;47.22;98537.91;10323939;28;972;-77
2024/01/04 17:13:35;;;;;;;;;;;;;;;17.49;46.81;98540.63;10324583;28;1871;-75
2024/01/04 17:18:31;;;;;;;;;;;;;;;17.45;47.11;98543.56;10325146;28;939;-84
2024/01/04 17:23:28;;;;;;;;;;;;;;;17.43;47.41;98540.16;10324377;28;868;-78
2024/01/04 17:28:25;;;;;;;;;;;;;;;17.54;46.79;98542.97;10324332;28;894;-72
2024/01/04 17:33:21;;;;;;;;;;;;;;;17.44;47.25;98536.56;10324016;28;1894;-78
2024/01/04 17:43:19;;;;;;;;;;;;;;;17.49;47.01;98542.41;10329019;28;778;-76
2024/01/04 17:48:15;;;;;;;;;;;;;;;17.57;47.02;98545.41;10331082;28;830;-76
2024/01/04 17:53:11;;;;;;;;;;;;;;;17.59;46.87;98545.34;10330290;28;1894;-76
2024/01/04 17:58:07;;;;;;;;;;;;;;;17.60;46.74;98549.66;10330808;28;1036;-76
2024/01/04 18:03:02;;;;;;;;;;;;;;;17.62;46.99;98543.34;10330524;28;972;-76
2024/01/04 18:07:58;;;;;;;;;;;;;;;17.63;46.58;98547.69;10331001;28;817;-75
2024/01/04 18:12:54;;;;;;;;;;;;;;;17.61;46.84;98552.19;10329531;28;1958;-76
2024/01/04 18:17:50;;;;;;;;;;;;;;;17.66;46.91;98555.41;10330951;28;893;-76
2024/01/04 18:22:46;;;;;;;;;;;;;;;17.67;46.76;98559.72;10329914;28;900;-76
2024/01/04 18:27:42;;;;;;;;;;;;;;;17.67;46.93;98554.44;10329107;28;861;-76
2024/01/04 18:32:38;;;;;;;;;;;;;;;17.69;47.01;98571.03;10329354;28;1894;-76
2024/01/04 18:37:34;;;;;;;;;;;;;;;17.69;46.54;98578.94;10328688;28;1428;-76
2024/01/04 18:42:30;;;;;;;;;;;;;;;17.66;46.87;98578.28;10329145;28;799;-76
2024/01/04 18:47:26;;;;;;;;;;;;;;;17.72;46.59;98567.34;10328893;28;786;-76
2024/01/04 18:52:22;;;;;;;;;;;;;;;17.72;46.72;98572.63;10327483;28;1973;-76
2024/01/04 18:57:18;;;;;;;;;;;;;;;17.73;46.66;98579.56;10329194;28;778;-76
2024/01/04 19:02:14;;;;;;;;;;;;;;;17.74;46.75;98574.22;10327622;28;854;-76
2024/01/04 19:07:10;;;;;;;;;;;;;;;17.74;46.80;98570.75;10328797;28;972;-76
2024/01/04 19:12:07;;;;;;;;;;;;;;;17.75;46.68;98557.44;10327288;28;1960;-76
2024/01/04 19:17:02;;;;;;;;;;;;;;;17.78;46.72;98543.25;10327595;28;822;-76
2024/01/04 19:21:58;;;;;;;;;;;;;;;17.77;46.81;98546.00;10327482;28;766;-76
2024/01/04 19:26:54;;;;;;;;;;;;;;;17.79;46.76;98541.44;10327230;28;861;-76
2024/01/04 19:31:50;;;;;;;;;;;;;;;17.82;46.68;98541.31;10327296;28;1898;-76
2024/01/04 19:36:46;;;;;;;;;;;;;;;17.80;46.87;98538.75;10326577;28;1274;-76
2024/01/04 19:41:42;;;;;;;;;;;;;;;17.80;46.83;98545.81;10327301;28;965;-76
2024/01/04 19:46:38;;;;;;;;;;;;;;;17.82;46.78;98536.03;10326467;28;861;-71
2024/01/04 19:51:34;;;;;;;;;;;;;;;17.73;46.76;98532.97;10326888;28;1984;-76
2024/01/04 19:56:30;;;;;;;;;;;;;;;17.78;46.65;98535.34;10326874;28;794;-76
2024/01/04 20:01:26;;;;;;;;;;;;;;;17.84;46.62;98534.13;10326026;28;870;-76
2024/01/04 20:06:22;;;;;;;;;;;;;;;17.82;46.68;98512.31;10325752;28;953;-76
2024/01/04 20:11:18;;;;;;;;;;;;;;;17.85;46.55;98528.78;10325787;28;1910;-76
2024/01/04 20:16:14;;;;;;;;;;;;;;;17.85;46.46;98535.84;10325685;28;826;-76
2024/01/04 20:21:09;;;;;;;;;;;;;;;17.84;46.62;98534.13;10325602;28;830;-76
2024/01/04 20:26:06;;;;;;;;;;;;;;;17.84;46.65;98528.84;10325429;28;945;-76
2024/01/04 20:31:07;;;;;;;;;;;;;;;17.84;46.52;98523.59;10325325;28;1949;-76
2024/01/04 20:36:03;;;;;;;;;;;;;;;17.80;46.64;98522.94;10324970;28;1215;-76
2024/01/04 20:40:59;;;;;;;;;;;;;;;17.80;46.79;98525.56;10324639;28;1386;-76
2024/01/04 20:45:56;;;;;;;;;;;;;;;17.74;46.85;98518.88;10325148;28;771;-76
2024/01/04 20:50:52;;;;;;;;;;;;;;;17.78;46.76;98513.41;10324975;28;1914;-76
2024/01/04 20:55:47;;;;;;;;;;;;;;;17.75;46.75;98517.91;10324959;28;806;-76
2024/01/04 21:00:43;;;;;;;;;;;;;;;17.71;46.96;98519.06;10324853;28;944;-76
2024/01/04 21:05:39;;;;;;;;;;;;;;;17.73;46.92;98519.78;10324639;28;909;-76
2024/01/04 21:10:35;;;;;;;;;;;;;;;17.74;46.72;98515.41;10324598;28;1965;-76
2024/01/04 21:15:31;;;;;;;;;;;;;;;17.70;46.75;98509.44;10325078;28;783;-76
2024/01/04 21:20:27;;;;;;;;;;;;;;;17.67;46.84;98500.91;10332291;28;773;-76
2024/01/04 21:25:23;;;;;;;;;;;;;;;17.69;46.82;98502.50;10331935;28;952;-76
2024/01/04 21:30:19;;;;;;;;;;;;;;;17.65;46.79;98482.53;10332400;28;1909;-76
2024/01/04 21:35:15;;;;;;;;;;;;;;;17.67;46.85;98488.56;10331677;28;939;-76
2024/01/04 21:40:11;;;;;;;;;;;;;;;17.64;46.73;98488.75;10332011;28;1223;-76
2024/01/04 21:45:08;;;;;;;;;;;;;;;17.59;46.95;98475.03;10331351;28;1047;-76
2024/01/04 21:50:04;;;;;;;;;;;;;;;17.54;47.05;98471.84;10331626;28;1902;-76
2024/01/04 21:55:00;;;;;;;;;;;;;;;17.55;46.99;98468.25;10330822;28;885;-76
2024/01/04 21:59:56;;;;;;;;;;;;;;;17.53;47.08;98462.25;10331376;28;874;-76
2024/01/04 22:04:52;;;;;;;;;;;;;;;17.50;47.17;98452.75;10330510;28;1150;-76
2024/01/04 22:09:47;;;;;;;;;;;;;;;17.48;47.17;98448.53;10330158;28;1961;-76
2024/01/04 22:14:44;;;;;;;;;;;;;;;17.45;47.25;98454.00;10330694;28;806;-76
2024/01/04 22:19:40;;;;;;;;;;;;;;;17.40;47.43;98445.53;10331194;28;852;-76
2024/01/04 22:24:36;;;;;;;;;;;;;;;17.37;47.15;98441.28;10329884;28;810;-76
2024/01/04 22:29:34;;;;;;;;;;;;;;;17.34;47.24;98436.19;10328906;28;1890;-76
2024/01/04 22:34:30;;;;;;;;;;;;;;;17.36;47.34;98422.94;10329406;28;877;-76
2024/01/04 22:39:26;;;;;;;;;;;;;;;17.36;47.42;98420.31;10329753;28;1144;-76
2024/01/04 22:44:22;;;;;;;;;;;;;;;17.34;47.17;98403.75;10329097;28;887;-76
2024/01/04 22:49:18;;;;;;;;;;;;;;;17.31;47.28;98389.81;10329119;28;865;-76
2024/01/04 22:54:14;;;;;;;;;;;;;;;17.34;47.25;98395.84;10328038;28;1977;-76
2024/01/04 22:59:10;;;;;;;;;;;;;;;17.30;47.21;98388.13;10328487;28;852;-76
2024/01/04 23:04:05;;;;;;;;;;;;;;;17.29;47.41;98368.03;10328255;28;854;-76
2024/01/04 23:09:01;;;;;;;;;;;;;;;17.28;47.43;98368.13;10327896;28;803;-76
2024/01/04 23:13:57;;;;;;;;;;;;;;;17.27;47.26;98364.63;10327792;28;2019;-76
2024/01/04 23:18:53;;;;;;;;;;;;;;;17.28;47.23;98357.56;10328243;28;902;-76
2024/01/04 23:23:50;;;;;;;;;;;;;;;17.28;47.29;98339.97;10327469;28;855;-76
2024/01/04 23:28:46;;;;;;;;;;;;;;;17.26;47.43;98343.66;10327806;28;879;-76
2024/01/04 23:33:42;;;;;;;;;;;;;;;17.25;47.20;98342.81;10327616;28;1951;-76
2024/01/04 23:38:37;;;;;;;;;;;;;;;17.25;47.33;98339.34;10325898;28;1208;-76
2024/01/04 23:43:33;;;;;;;;;;;;;;;17.25;47.36;98329.66;10326641;28;879;-76
2024/01/04 23:48:29;;;;;;;;;;;;;;;17.22;47.39;98327.22;10326650;28;747;-76
2024/01/04 23:53:25;;;;;;;;;;;;;;;17.22;47.38;98316.69;10326304;28;1975;-76
2024/01/04 23:58:21;;;;;;;;;;;;;;;17.22;47.49;98306.16;10326339;28;892;-76
